sensor_id;sensor_type;location;lat;lon;timestamp;P1;durP1;ratioP1;P2;durP2;ratioP2
32894;SDS011;19251;49.484;8.260;2022-12-24T00:00:38;14.32;;;3.35;;
32894;SDS011;19251;49.484;8.260;2022-12-24T00:05:40;14.45;;;2.62;;
32894;SDS011;19251;49.484;8.260;2022-12-24T00:10:43;14.30;;;3.08;;
32894;SDS011;19251;49.484;8.260;2022-12-24T00:15:45;14.37;;;2.93;;
32894;SDS011;19251;49.484;8.260;2022-12-24T00:20:48;12.10;;;2.42;;
32894;SDS011;19251;49.484;8.260;2022-12-24T00:30:52;16.93;;;2.70;;
32894;SDS011;19251;49.484;8.260;2022-12-24T00:35:54;6.87;;;2.37;;
32894;SDS011;19251;49.484;8.260;2022-12-24T00:41:00;5.72;;;1.90;;
32894;SDS011;19251;49.484;8.260;2022-12-24T00:46:04;13.17;;;2.70;;
32894;SDS011;19251;49.484;8.260;2022-12-24T00:51:06;17.08;;;2.85;;
32894;SDS011;19251;49.484;8.260;2022-12-24T00:56:08;15.40;;;2.20;;
32894;SDS011;19251;49.484;8.260;2022-12-24T01:01:11;15.10;;;2.40;;
32894;SDS011;19251;49.484;8.260;2022-12-24T01:06:15;14.10;;;2.83;;
32894;SDS011;19251;49.484;8.260;2022-12-24T01:11:19;11.60;;;2.70;;
32894;SDS011;19251;49.484;8.260;2022-12-24T01:16:21;9.30;;;2.05;;
32894;SDS011;19251;49.484;8.260;2022-12-24T01:21:23;15.77;;;3.40;;
32894;SDS011;19251;49.484;8.260;2022-12-24T01:26:25;8.40;;;2.05;;
32894;SDS011;19251;49.484;8.260;2022-12-24T01:31:27;13.68;;;2.25;;
32894;SDS011;19251;49.484;8.260;2022-12-24T01:36:30;7.43;;;1.90;;
32894;SDS011;19251;49.484;8.260;2022-12-24T01:41:32;14.65;;;2.83;;
32894;SDS011;19251;49.484;8.260;2022-12-24T01:47:10;17.57;;;2.80;;
32894;SDS011;19251;49.484;8.260;2022-12-24T01:52:25;13.03;;;2.50;;
32894;SDS011;19251;49.484;8.260;2022-12-24T01:57:36;13.80;;;2.67;;
32894;SDS011;19251;49.484;8.260;2022-12-24T02:02:43;9.13;;;2.13;;
32894;SDS011;19251;49.484;8.260;2022-12-24T02:07:48;20.33;;;4.20;;
32894;SDS011;19251;49.484;8.260;2022-12-24T02:12:51;13.98;;;2.53;;
32894;SDS011;19251;49.484;8.260;2022-12-24T02:28:33;9.93;;;2.53;;
32894;SDS011;19251;49.484;8.260;2022-12-24T02:34:06;17.73;;;2.53;;
32894;SDS011;19251;49.484;8.260;2022-12-24T02:39:19;10.83;;;3.63;;
32894;SDS011;19251;49.484;8.260;2022-12-24T02:44:27;14.97;;;2.63;;
32894;SDS011;19251;49.484;8.260;2022-12-24T02:49:32;17.57;;;2.33;;
32894;SDS011;19251;49.484;8.260;2022-12-24T02:54:36;9.60;;;1.87;;
32894;SDS011;19251;49.484;8.260;2022-12-24T02:59:50;6.65;;;2.03;;
32894;SDS011;19251;49.484;8.260;2022-12-24T03:15:56;8.90;;;2.20;;
32894;SDS011;19251;49.484;8.260;2022-12-24T03:26:08;13.07;;;3.27;;
32894;SDS011;19251;49.484;8.260;2022-12-24T03:31:15;13.80;;;2.85;;
32894;SDS011;19251;49.484;8.260;2022-12-24T03:36:19;9.90;;;2.45;;
32894;SDS011;19251;49.484;8.260;2022-12-24T03:41:22;17.50;;;3.08;;
32894;SDS011;19251;49.484;8.260;2022-12-24T03:46:24;13.65;;;3.00;;
32894;SDS011;19251;49.484;8.260;2022-12-24T03:51:26;16.62;;;2.72;;
32894;SDS011;19251;49.484;8.260;2022-12-24T03:56:29;11.40;;;3.73;;
32894;SDS011;19251;49.484;8.260;2022-12-24T04:01:31;10.75;;;3.22;;
32894;SDS011;19251;49.484;8.260;2022-12-24T04:06:35;8.67;;;2.57;;
32894;SDS011;19251;49.484;8.260;2022-12-24T04:11:38;16.70;;;3.07;;
32894;SDS011;19251;49.484;8.260;2022-12-24T04:16:40;9.77;;;2.22;;
32894;SDS011;19251;49.484;8.260;2022-12-24T04:21:42;17.48;;;3.25;;
32894;SDS011;19251;49.484;8.260;2022-12-24T04:26:44;16.95;;;3.58;;
32894;SDS011;19251;49.484;8.260;2022-12-24T04:31:46;23.98;;;3.42;;
32894;SDS011;19251;49.484;8.260;2022-12-24T04:36:49;18.98;;;3.47;;
32894;SDS011;19251;49.484;8.260;2022-12-24T04:41:51;19.80;;;4.68;;
32894;SDS011;19251;49.484;8.260;2022-12-24T04:46:53;21.83;;;4.20;;
32894;SDS011;19251;49.484;8.260;2022-12-24T04:51:55;22.92;;;3.78;;
32894;SDS011;19251;49.484;8.260;2022-12-24T04:56:57;17.20;;;3.25;;
32894;SDS011;19251;49.484;8.260;2022-12-24T05:01:59;14.43;;;3.65;;
32894;SDS011;19251;49.484;8.260;2022-12-24T05:07:02;11.45;;;3.55;;
32894;SDS011;19251;49.484;8.260;2022-12-24T05:12:05;20.37;;;5.07;;
32894;SDS011;19251;49.484;8.260;2022-12-24T05:17:07;24.17;;;4.60;;
32894;SDS011;19251;49.484;8.260;2022-12-24T05:22:09;23.48;;;3.75;;
32894;SDS011;19251;49.484;8.260;2022-12-24T05:27:30;26.90;;;4.63;;
32894;SDS011;19251;49.484;8.260;2022-12-24T05:32:32;24.27;;;4.18;;
32894;SDS011;19251;49.484;8.260;2022-12-24T05:37:34;19.00;;;4.07;;
32894;SDS011;19251;49.484;8.260;2022-12-24T05:42:37;14.82;;;3.62;;
32894;SDS011;19251;49.484;8.260;2022-12-24T05:47:39;26.02;;;5.93;;
32894;SDS011;19251;49.484;8.260;2022-12-24T05:52:44;14.93;;;3.33;;
32894;SDS011;19251;49.484;8.260;2022-12-24T05:57:46;11.15;;;2.92;;
32894;SDS011;19251;49.484;8.260;2022-12-24T06:02:48;28.92;;;5.97;;
32894;SDS011;19251;49.484;8.260;2022-12-24T06:07:50;18.92;;;4.00;;
32894;SDS011;19251;49.484;8.260;2022-12-24T06:12:54;19.80;;;3.83;;
32894;SDS011;19251;49.484;8.260;2022-12-24T06:17:56;16.35;;;4.25;;
32894;SDS011;19251;49.484;8.260;2022-12-24T06:22:58;17.55;;;4.15;;
32894;SDS011;19251;49.484;8.260;2022-12-24T06:28:00;29.23;;;4.62;;
32894;SDS011;19251;49.484;8.260;2022-12-24T06:33:02;23.83;;;4.85;;
32894;SDS011;19251;49.484;8.260;2022-12-24T06:38:04;18.83;;;4.45;;
32894;SDS011;19251;49.484;8.260;2022-12-24T06:43:07;21.58;;;4.60;;
32894;SDS011;19251;49.484;8.260;2022-12-24T06:53:11;27.70;;;5.50;;
32894;SDS011;19251;49.484;8.260;2022-12-24T06:58:14;23.67;;;5.20;;
32894;SDS011;19251;49.484;8.260;2022-12-24T07:03:16;29.23;;;5.93;;
32894;SDS011;19251;49.484;8.260;2022-12-24T07:08:18;21.65;;;4.90;;
32894;SDS011;19251;49.484;8.260;2022-12-24T07:13:20;21.60;;;4.95;;
32894;SDS011;19251;49.484;8.260;2022-12-24T07:18:22;24.00;;;5.47;;
32894;SDS011;19251;49.484;8.260;2022-12-24T07:23:24;15.88;;;3.85;;
32894;SDS011;19251;49.484;8.260;2022-12-24T07:33:30;23.50;;;3.83;;
32894;SDS011;19251;49.484;8.260;2022-12-24T07:38:32;19.02;;;4.62;;
32894;SDS011;19251;49.484;8.260;2022-12-24T07:43:35;23.13;;;5.60;;
32894;SDS011;19251;49.484;8.260;2022-12-24T07:48:37;19.05;;;4.37;;
32894;SDS011;19251;49.484;8.260;2022-12-24T07:53:40;15.85;;;3.65;;
32894;SDS011;19251;49.484;8.260;2022-12-24T07:58:51;18.90;;;3.73;;
32894;SDS011;19251;49.484;8.260;2022-12-24T08:03:53;15.83;;;3.53;;
32894;SDS011;19251;49.484;8.260;2022-12-24T08:08:56;11.90;;;2.95;;
32894;SDS011;19251;49.484;8.260;2022-12-24T08:13:58;23.17;;;4.25;;
32894;SDS011;19251;49.484;8.260;2022-12-24T08:19:00;24.25;;;4.70;;
32894;SDS011;19251;49.484;8.260;2022-12-24T08:24:02;23.20;;;4.65;;
32894;SDS011;19251;49.484;8.260;2022-12-24T08:29:05;17.50;;;4.18;;
32894;SDS011;19251;49.484;8.260;2022-12-24T08:34:07;15.63;;;3.25;;
32894;SDS011;19251;49.484;8.260;2022-12-24T08:39:09;15.52;;;3.22;;
32894;SDS011;19251;49.484;8.260;2022-12-24T08:44:11;18.25;;;3.17;;
32894;SDS011;19251;49.484;8.260;2022-12-24T08:49:13;27.42;;;6.03;;
32894;SDS011;19251;49.484;8.260;2022-12-24T08:54:16;26.95;;;4.82;;
32894;SDS011;19251;49.484;8.260;2022-12-24T09:04:21;24.97;;;4.93;;
32894;SDS011;19251;49.484;8.260;2022-12-24T09:09:23;20.92;;;4.57;;
32894;SDS011;19251;49.484;8.260;2022-12-24T09:14:25;29.95;;;6.40;;
32894;SDS011;19251;49.484;8.260;2022-12-24T09:19:27;18.92;;;4.40;;
32894;SDS011;19251;49.484;8.260;2022-12-24T09:24:29;26.48;;;5.47;;
32894;SDS011;19251;49.484;8.260;2022-12-24T09:29:32;27.53;;;5.00;;
32894;SDS011;19251;49.484;8.260;2022-12-24T09:34:36;15.77;;;4.17;;
32894;SDS011;19251;49.484;8.260;2022-12-24T09:39:38;38.25;;;5.62;;
32894;SDS011;19251;49.484;8.260;2022-12-24T09:44:42;20.95;;;4.03;;
32894;SDS011;19251;49.484;8.260;2022-12-24T09:50:08;21.30;;;4.10;;
32894;SDS011;19251;49.484;8.260;2022-12-24T09:55:26;26.90;;;6.62;;
32894;SDS011;19251;49.484;8.260;2022-12-24T10:00:34;18.15;;;4.25;;
32894;SDS011;19251;49.484;8.260;2022-12-24T10:05:53;15.57;;;3.95;;
32894;SDS011;19251;49.484;8.260;2022-12-24T10:21:43;18.95;;;4.10;;
32894;SDS011;19251;49.484;8.260;2022-12-24T10:27:11;17.92;;;4.40;;
32894;SDS011;19251;49.484;8.260;2022-12-24T10:32:25;24.15;;;5.43;;
32894;SDS011;19251;49.484;8.260;2022-12-24T10:37:30;24.48;;;5.68;;
32894;SDS011;19251;49.484;8.260;2022-12-24T10:42:37;25.75;;;5.55;;
32894;SDS011;19251;49.484;8.260;2022-12-24T10:47:53;16.40;;;4.70;;
32894;SDS011;19251;49.484;8.260;2022-12-24T10:53:12;19.80;;;4.32;;
32894;SDS011;19251;49.484;8.260;2022-12-24T10:58:22;21.98;;;4.47;;
32894;SDS011;19251;49.484;8.260;2022-12-24T11:03:28;23.25;;;5.43;;
32894;SDS011;19251;49.484;8.260;2022-12-24T11:08:36;23.92;;;4.85;;
32894;SDS011;19251;49.484;8.260;2022-12-24T11:13:44;16.45;;;3.22;;
32894;SDS011;19251;49.484;8.260;2022-12-24T11:18:53;13.48;;;4.20;;
32894;SDS011;19251;49.484;8.260;2022-12-24T11:23:59;27.25;;;5.12;;
32894;SDS011;19251;49.484;8.260;2022-12-24T11:34:29;27.48;;;7.00;;
32894;SDS011;19251;49.484;8.260;2022-12-24T11:39:37;18.30;;;5.37;;
32894;SDS011;19251;49.484;8.260;2022-12-24T11:44:48;20.77;;;4.68;;
32894;SDS011;19251;49.484;8.260;2022-12-24T11:49:51;20.17;;;5.15;;
32894;SDS011;19251;49.484;8.260;2022-12-24T11:59:55;16.83;;;4.68;;
32894;SDS011;19251;49.484;8.260;2022-12-24T12:05:08;12.60;;;3.55;;
32894;SDS011;19251;49.484;8.260;2022-12-24T12:10:21;21.52;;;4.37;;
32894;SDS011;19251;49.484;8.260;2022-12-24T12:15:28;18.98;;;5.10;;
32894;SDS011;19251;49.484;8.260;2022-12-24T12:26:06;23.80;;;4.90;;
32894;SDS011;19251;49.484;8.260;2022-12-24T12:31:15;15.80;;;4.18;;
32894;SDS011;19251;49.484;8.260;2022-12-24T12:36:33;18.92;;;5.85;;
32894;SDS011;19251;49.484;8.260;2022-12-24T12:57:29;21.83;;;4.57;;
32894;SDS011;19251;49.484;8.260;2022-12-24T13:02:44;14.75;;;5.05;;
32894;SDS011;19251;49.484;8.260;2022-12-24T13:23:45;27.27;;;5.25;;
32894;SDS011;19251;49.484;8.260;2022-12-24T13:28:47;20.70;;;4.32;;
32894;SDS011;19251;49.484;8.260;2022-12-24T13:33:50;10.80;;;3.65;;
32894;SDS011;19251;49.484;8.260;2022-12-24T13:38:55;17.08;;;4.25;;
32894;SDS011;19251;49.484;8.260;2022-12-24T13:49:17;10.80;;;3.87;;
32894;SDS011;19251;49.484;8.260;2022-12-24T13:54:21;17.58;;;3.40;;
32894;SDS011;19251;49.484;8.260;2022-12-24T14:04:39;12.57;;;3.53;;
32894;SDS011;19251;49.484;8.260;2022-12-24T14:09:46;15.07;;;3.80;;
32894;SDS011;19251;49.484;8.260;2022-12-24T14:14:51;9.13;;;3.65;;
32894;SDS011;19251;49.484;8.260;2022-12-24T14:19:54;12.48;;;4.20;;
32894;SDS011;19251;49.484;8.260;2022-12-24T14:25:12;15.70;;;3.80;;
32894;SDS011;19251;49.484;8.260;2022-12-24T14:30:19;21.33;;;4.68;;
32894;SDS011;19251;49.484;8.260;2022-12-24T14:35:29;12.90;;;3.83;;
32894;SDS011;19251;49.484;8.260;2022-12-24T14:40:46;15.65;;;3.62;;
32894;SDS011;19251;49.484;8.260;2022-12-24T14:46:03;17.33;;;4.15;;
32894;SDS011;19251;49.484;8.260;2022-12-24T14:51:29;10.23;;;3.25;;
32894;SDS011;19251;49.484;8.260;2022-12-24T14:56:46;16.55;;;5.80;;
32894;SDS011;19251;49.484;8.260;2022-12-24T15:02:41;21.10;;;6.53;;
32894;SDS011;19251;49.484;8.260;2022-12-24T15:07:42;21.25;;;5.57;;
32894;SDS011;19251;49.484;8.260;2022-12-24T15:12:49;20.10;;;4.72;;
32894;SDS011;19251;49.484;8.260;2022-12-24T15:17:52;22.70;;;5.03;;
32894;SDS011;19251;49.484;8.260;2022-12-24T15:22:57;14.77;;;4.80;;
32894;SDS011;19251;49.484;8.260;2022-12-24T15:27:59;19.55;;;4.05;;
32894;SDS011;19251;49.484;8.260;2022-12-24T15:33:01;14.40;;;4.68;;
32894;SDS011;19251;49.484;8.260;2022-12-24T15:38:05;16.40;;;4.13;;
32894;SDS011;19251;49.484;8.260;2022-12-24T15:43:19;24.83;;;4.72;;
32894;SDS011;19251;49.484;8.260;2022-12-24T15:48:23;13.85;;;4.57;;
32894;SDS011;19251;49.484;8.260;2022-12-24T15:53:34;12.43;;;4.00;;
32894;SDS011;19251;49.484;8.260;2022-12-24T15:58:42;9.83;;;3.10;;
32894;SDS011;19251;49.484;8.260;2022-12-24T16:08:51;14.73;;;4.70;;
32894;SDS011;19251;49.484;8.260;2022-12-24T16:19:15;22.20;;;9.32;;
32894;SDS011;19251;49.484;8.260;2022-12-24T16:24:24;19.65;;;9.82;;
32894;SDS011;19251;49.484;8.260;2022-12-24T16:29:28;21.23;;;11.20;;
32894;SDS011;19251;49.484;8.260;2022-12-24T16:34:31;19.27;;;8.80;;
32894;SDS011;19251;49.484;8.260;2022-12-24T16:44:35;18.17;;;7.13;;
32894;SDS011;19251;49.484;8.260;2022-12-24T16:49:38;12.80;;;7.65;;
32894;SDS011;19251;49.484;8.260;2022-12-24T16:54:40;20.75;;;9.23;;
32894;SDS011;19251;49.484;8.260;2022-12-24T16:59:42;30.50;;;14.18;;
32894;SDS011;19251;49.484;8.260;2022-12-24T17:04:45;24.10;;;11.85;;
32894;SDS011;19251;49.484;8.260;2022-12-24T17:09:48;31.33;;;11.60;;
32894;SDS011;19251;49.484;8.260;2022-12-24T17:14:50;20.73;;;9.50;;
32894;SDS011;19251;49.484;8.260;2022-12-24T17:19:52;18.37;;;7.95;;
32894;SDS011;19251;49.484;8.260;2022-12-24T17:24:55;16.53;;;7.87;;
32894;SDS011;19251;49.484;8.260;2022-12-24T17:29:57;28.42;;;8.10;;
32894;SDS011;19251;49.484;8.260;2022-12-24T17:40:03;15.25;;;6.60;;
32894;SDS011;19251;49.484;8.260;2022-12-24T17:45:06;12.67;;;6.10;;
32894;SDS011;19251;49.484;8.260;2022-12-24T17:50:08;13.48;;;6.93;;
32894;SDS011;19251;49.484;8.260;2022-12-24T17:55:10;13.98;;;6.60;;
32894;SDS011;19251;49.484;8.260;2022-12-24T18:00:13;12.95;;;5.78;;
32894;SDS011;19251;49.484;8.260;2022-12-24T18:05:16;17.80;;;5.55;;
32894;SDS011;19251;49.484;8.260;2022-12-24T18:10:19;15.50;;;6.05;;
32894;SDS011;19251;49.484;8.260;2022-12-24T18:15:21;24.75;;;12.13;;
32894;SDS011;19251;49.484;8.260;2022-12-24T18:20:24;21.70;;;12.65;;
32894;SDS011;19251;49.484;8.260;2022-12-24T18:25:26;30.15;;;17.23;;
32894;SDS011;19251;49.484;8.260;2022-12-24T18:30:28;25.15;;;13.73;;
32894;SDS011;19251;49.484;8.260;2022-12-24T18:35:30;24.33;;;11.88;;
32894;SDS011;19251;49.484;8.260;2022-12-24T18:40:35;15.38;;;10.18;;
32894;SDS011;19251;49.484;8.260;2022-12-24T18:45:41;18.20;;;8.27;;
32894;SDS011;19251;49.484;8.260;2022-12-24T18:50:52;15.45;;;6.20;;
32894;SDS011;19251;49.484;8.260;2022-12-24T18:56:03;16.10;;;7.15;;
32894;SDS011;19251;49.484;8.260;2022-12-24T19:01:14;15.43;;;6.83;;
32894;SDS011;19251;49.484;8.260;2022-12-24T19:06:27;26.95;;;8.80;;
32894;SDS011;19251;49.484;8.260;2022-12-24T19:11:30;25.90;;;8.60;;
32894;SDS011;19251;49.484;8.260;2022-12-24T19:16:35;18.55;;;8.95;;
32894;SDS011;19251;49.484;8.260;2022-12-24T19:21:37;16.40;;;8.57;;
32894;SDS011;19251;49.484;8.260;2022-12-24T19:26:40;17.27;;;8.23;;
32894;SDS011;19251;49.484;8.260;2022-12-24T19:31:42;17.15;;;7.85;;
32894;SDS011;19251;49.484;8.260;2022-12-24T19:36:47;18.60;;;7.90;;
32894;SDS011;19251;49.484;8.260;2022-12-24T19:41:51;15.67;;;6.43;;
32894;SDS011;19251;49.484;8.260;2022-12-24T19:46:53;15.50;;;6.55;;
32894;SDS011;19251;49.484;8.260;2022-12-24T19:51:55;12.35;;;5.47;;
32894;SDS011;19251;49.484;8.260;2022-12-24T19:56:57;12.70;;;5.28;;
32894;SDS011;19251;49.484;8.260;2022-12-24T20:01:59;20.23;;;8.55;;
32894;SDS011;19251;49.484;8.260;2022-12-24T20:07:02;36.60;;;22.15;;
32894;SDS011;19251;49.484;8.260;2022-12-24T20:12:04;23.77;;;10.85;;
32894;SDS011;19251;49.484;8.260;2022-12-24T20:17:06;14.95;;;5.78;;
32894;SDS011;19251;49.484;8.260;2022-12-24T20:27:11;9.17;;;4.03;;
32894;SDS011;19251;49.484;8.260;2022-12-24T20:32:13;22.37;;;5.45;;
32894;SDS011;19251;49.484;8.260;2022-12-24T20:37:16;19.55;;;5.57;;
32894;SDS011;19251;49.484;8.260;2022-12-24T20:42:18;23.17;;;8.15;;
32894;SDS011;19251;49.484;8.260;2022-12-24T20:47:20;28.70;;;10.77;;
32894;SDS011;19251;49.484;8.260;2022-12-24T20:52:22;31.48;;;11.30;;
32894;SDS011;19251;49.484;8.260;2022-12-24T20:57:24;23.10;;;8.57;;
32894;SDS011;19251;49.484;8.260;2022-12-24T21:02:36;18.17;;;6.60;;
32894;SDS011;19251;49.484;8.260;2022-12-24T21:07:39;19.60;;;7.50;;
32894;SDS011;19251;49.484;8.260;2022-12-24T21:12:43;24.53;;;6.93;;
32894;SDS011;19251;49.484;8.260;2022-12-24T21:17:57;22.60;;;7.27;;
32894;SDS011;19251;49.484;8.260;2022-12-24T21:23:00;21.83;;;7.07;;
32894;SDS011;19251;49.484;8.260;2022-12-24T21:28:03;29.55;;;7.22;;
32894;SDS011;19251;49.484;8.260;2022-12-24T21:33:05;21.20;;;6.60;;
32894;SDS011;19251;49.484;8.260;2022-12-24T21:38:07;14.10;;;5.72;;
32894;SDS011;19251;49.484;8.260;2022-12-24T21:43:09;17.30;;;8.25;;
32894;SDS011;19251;49.484;8.260;2022-12-24T21:48:11;24.48;;;10.50;;
32894;SDS011;19251;49.484;8.260;2022-12-24T21:53:32;25.77;;;11.10;;
32894;SDS011;19251;49.484;8.260;2022-12-24T21:58:53;35.87;;;12.93;;
32894;SDS011;19251;49.484;8.260;2022-12-24T22:03:55;22.48;;;11.10;;
32894;SDS011;19251;49.484;8.260;2022-12-24T22:08:59;22.05;;;9.30;;
32894;SDS011;19251;49.484;8.260;2022-12-24T22:14:20;26.95;;;12.45;;
32894;SDS011;19251;49.484;8.260;2022-12-24T22:19:22;24.02;;;10.07;;
32894;SDS011;19251;49.484;8.260;2022-12-24T22:24:25;22.23;;;8.35;;
32894;SDS011;19251;49.484;8.260;2022-12-24T22:29:27;22.33;;;10.50;;
32894;SDS011;19251;49.484;8.260;2022-12-24T22:34:30;21.12;;;9.25;;
32894;SDS011;19251;49.484;8.260;2022-12-24T22:39:33;16.30;;;7.10;;
32894;SDS011;19251;49.484;8.260;2022-12-24T22:44:35;14.50;;;6.45;;
32894;SDS011;19251;49.484;8.260;2022-12-24T22:49:37;19.02;;;7.50;;
32894;SDS011;19251;49.484;8.260;2022-12-24T22:54:39;13.25;;;5.65;;
32894;SDS011;19251;49.484;8.260;2022-12-24T22:59:42;21.33;;;6.72;;
32894;SDS011;19251;49.484;8.260;2022-12-24T23:04:44;12.02;;;5.60;;
32894;SDS011;19251;49.484;8.260;2022-12-24T23:09:47;16.87;;;6.22;;
32894;SDS011;19251;49.484;8.260;2022-12-24T23:14:49;16.50;;;5.43;;
32894;SDS011;19251;49.484;8.260;2022-12-24T23:19:57;18.30;;;5.85;;
32894;SDS011;19251;49.484;8.260;2022-12-24T23:25:01;13.93;;;4.70;;
32894;SDS011;19251;49.484;8.260;2022-12-24T23:30:03;10.50;;;5.90;;
32894;SDS011;19251;49.484;8.260;2022-12-24T23:35:06;19.70;;;5.80;;
32894;SDS011;19251;49.484;8.260;2022-12-24T23:40:08;11.82;;;5.32;;
32894;SDS011;19251;49.484;8.260;2022-12-24T23:45:11;9.87;;;4.20;;
32894;SDS011;19251;49.484;8.260;2022-12-24T23:50:13;19.83;;;5.10;;
32894;SDS011;19251;49.484;8.260;2022-12-24T23:55:16;13.40;;;5.43;;
